Time;durP1;ratioP1;P1;durP2;ratioP2;P2;SDS_P1;SDS_P2;PMS_P1;PMS_P2;Temp;Humidity;BMP_temperature;BMP_pressure;BME280_temperature;BME280_humidity;BME280_pressure;Samples;Min_cycle;Max_cycle;Signal;HPM_P1;HPM_P2
2021/12/09 00:01:20;;;;;;;67.63;44.83;;;;;;;;;;5085126;28;20036;-75
2021/12/09 00:04:11;;;;;;;73.43;47.40;;;;;;;;;;5095165;28;20507;-75
2021/12/09 00:07:00;;;;;;;146.82;86.82;;;;;;;;;;5090767;28;20030;-76
2021/12/09 00:09:47;;;;;;;79.32;48.90;;;;;;;;;;5097134;28;20426;-76
2021/12/09 00:12:34;;;;;;;144.50;86.80;;;;;;;;;;5098930;28;20032;-76
2021/12/09 00:15:20;;;;;;;71.95;46.30;;;;;;;;;;5093093;28;20024;-75
2021/12/09 00:18:07;;;;;;;127.40;79.00;;;;;;;;;;5108800;28;20028;-76
2021/12/09 00:20:54;;;;;;;147.05;92.38;;;;;;;;;;5103702;28;20020;-76
2021/12/09 00:23:41;;;;;;;114.63;70.82;;;;;;;;;;5105050;28;20036;-76
2021/12/09 00:26:28;;;;;;;102.50;63.53;;;;;;;;;;5103401;28;20015;-75
2021/12/09 00:29:15;;;;;;;107.63;66.43;;;;;;;;;;5086972;28;20034;-77
2021/12/09 00:32:02;;;;;;;107.88;67.47;;;;;;;;;;5107791;28;20052;-76
2021/12/09 00:34:51;;;;;;;103.15;63.13;;;;;;;;;;5099784;28;20031;-77
2021/12/09 00:37:41;;;;;;;72.85;43.88;;;;;;;;;;5107046;28;20020;-76
2021/12/09 00:40:28;;;;;;;103.38;62.22;;;;;;;;;;5107691;28;20050;-77
2021/12/09 00:43:17;;;;;;;81.25;48.40;;;;;;;;;;5093422;28;20028;-77
2021/12/09 00:46:05;;;;;;;75.70;48.70;;;;;;;;;;5083477;28;20035;-77
2021/12/09 00:48:51;;;;;;;86.85;56.10;;;;;;;;;;5090646;28;20036;-77
2021/12/09 00:51:38;;;;;;;99.78;62.40;;;;;;;;;;5092374;28;20024;-78
2021/12/09 00:54:25;;;;;;;85.32;56.25;;;;;;;;;;5081137;28;20028;-78
2021/12/09 00:57:11;;;;;;;107.90;68.90;;;;;;;;;;5089509;28;20766;-77
2021/12/09 00:59:59;;;;;;;100.28;62.88;;;;;;;;;;5074437;28;20040;-77
2021/12/09 01:02:45;;;;;;;134.98;83.35;;;;;;;;;;5088550;28;20031;-76
2021/12/09 01:05:32;;;;;;;115.22;70.22;;;;;;;;;;5075771;28;20024;-76
2021/12/09 01:08:19;;;;;;;94.47;57.78;;;;;;;;;;5089826;28;20032;-75
2021/12/09 01:11:06;;;;;;;128.63;78.78;;;;;;;;;;5089857;28;20028;-76
2021/12/09 01:13:53;;;;;;;113.72;72.63;;;;;;;;;;5072619;28;20032;-75
2021/12/09 01:16:40;;;;;;;67.18;42.70;;;;;;;;;;5072478;28;20050;-76
2021/12/09 01:19:27;;;;;;;89.28;54.53;;;;;;;;;;5083695;28;20520;-76
2021/12/09 01:22:13;;;;;;;131.65;79.25;;;;;;;;;;5090416;28;20032;-75
2021/12/09 01:25:00;;;;;;;107.75;66.15;;;;;;;;;;5090290;28;20526;-76
2021/12/09 01:27:48;;;;;;;100.65;61.08;;;;;;;;;;5086314;28;20031;-77
2021/12/09 01:30:36;;;;;;;103.07;62.30;;;;;;;;;;5083424;28;20039;-76
2021/12/09 01:33:23;;;;;;;57.90;39.47;;;;;;;;;;5082763;28;20415;-76
2021/12/09 01:36:10;;;;;;;142.63;88.63;;;;;;;;;;5087984;28;20484;-76
2021/12/09 01:38:56;;;;;;;101.65;59.33;;;;;;;;;;5086429;28;20496;-77
2021/12/09 01:41:43;;;;;;;125.68;72.88;;;;;;;;;;5084217;28;20028;-76
2021/12/09 01:44:30;;;;;;;105.18;65.55;;;;;;;;;;5086552;28;20407;-75
2021/12/09 01:47:17;;;;;;;113.35;68.70;;;;;;;;;;5079884;28;20078;-76
2021/12/09 01:50:04;;;;;;;131.38;80.22;;;;;;;;;;5089784;28;20047;-75
2021/12/09 01:52:50;;;;;;;86.32;53.20;;;;;;;;;;5089971;28;20035;-76
2021/12/09 01:55:37;;;;;;;104.30;66.10;;;;;;;;;;5081906;28;20040;-76
2021/12/09 01:58:24;;;;;;;132.30;77.70;;;;;;;;;;5075640;28;20044;-76
2021/12/09 02:01:11;;;;;;;143.43;86.43;;;;;;;;;;5078989;28;20025;-76
2021/12/09 02:03:57;;;;;;;97.97;59.95;;;;;;;;;;5090056;28;20042;-76
2021/12/09 02:06:45;;;;;;;139.27;83.63;;;;;;;;;;5082610;28;20387;-74
2021/12/09 02:09:32;;;;;;;109.90;69.90;;;;;;;;;;5087059;28;20043;-76
2021/12/09 02:12:18;;;;;;;129.88;77.32;;;;;;;;;;5088629;28;20106;-78
2021/12/09 02:15:05;;;;;;;113.95;70.35;;;;;;;;;;5087780;28;20032;-76
2021/12/09 02:17:53;;;;;;;76.32;48.80;;;;;;;;;;5089239;28;20047;-75
2021/12/09 02:20:41;;;;;;;82.18;52.25;;;;;;;;;;5078423;28;20476;-76
2021/12/09 02:23:28;;;;;;;107.38;62.90;;;;;;;;;;5089113;28;20024;-76
2021/12/09 02:26:16;;;;;;;99.25;62.13;;;;;;;;;;5090171;28;20047;-75
2021/12/09 02:29:04;;;;;;;83.28;51.67;;;;;;;;;;5086294;28;20046;-76
2021/12/09 02:31:56;;;;;;;104.32;66.28;;;;;;;;;;5087110;28;20519;-77
2021/12/09 02:34:42;;;;;;;101.57;63.88;;;;;;;;;;5082453;28;20043;-75
2021/12/09 02:37:29;;;;;;;110.15;71.60;;;;;;;;;;5089399;28;20047;-76
2021/12/09 02:40:16;;;;;;;115.45;70.32;;;;;;;;;;5085858;28;20042;-75
2021/12/09 02:43:08;;;;;;;94.90;56.42;;;;;;;;;;5085906;28;20047;-75
2021/12/09 02:45:56;;;;;;;86.07;50.28;;;;;;;;;;5085308;28;20552;-75
2021/12/09 02:48:43;;;;;;;47.45;30.40;;;;;;;;;;5072960;28;20045;-76
2021/12/09 02:51:29;;;;;;;83.43;52.35;;;;;;;;;;5064473;28;20025;-75
2021/12/09 02:54:17;;;;;;;55.90;37.45;;;;;;;;;;5083893;28;20043;-76
2021/12/09 02:57:05;;;;;;;66.05;41.58;;;;;;;;;;5089303;28;20039;-75
2021/12/09 02:59:52;;;;;;;74.57;43.60;;;;;;;;;;5084226;28;20036;-76
2021/12/09 03:02:42;;;;;;;62.90;36.38;;;;;;;;;;5068222;28;20031;-78
2021/12/09 03:05:29;;;;;;;65.35;41.72;;;;;;;;;;5089054;28;20043;-77
2021/12/09 03:08:21;;;;;;;65.88;41.47;;;;;;;;;;5081712;28;20028;-76
2021/12/09 03:11:09;;;;;;;56.33;33.83;;;;;;;;;;5087273;28;20571;-76
2021/12/09 03:13:56;;;;;;;57.85;35.63;;;;;;;;;;5081399;28;20033;-75
2021/12/09 03:16:43;;;;;;;67.80;40.95;;;;;;;;;;5081918;28;20518;-76
2021/12/09 03:19:30;;;;;;;37.10;24.77;;;;;;;;;;5091809;28;20043;-76
2021/12/09 03:22:17;;;;;;;48.40;32.00;;;;;;;;;;5090821;28;20393;-76
2021/12/09 03:25:04;;;;;;;53.75;34.45;;;;;;;;;;5082127;28;20721;-76
2021/12/09 03:27:51;;;;;;;50.15;30.75;;;;;;;;;;5059988;28;20040;-76
2021/12/09 03:30:38;;;;;;;70.93;43.38;;;;;;;;;;5090292;28;20036;-76
2021/12/09 03:33:24;;;;;;;32.00;22.02;;;;;;;;;;5092193;28;20055;-76
2021/12/09 03:36:11;;;;;;;44.03;28.38;;;;;;;;;;5088998;28;20032;-76
2021/12/09 03:38:59;;;;;;;55.92;36.35;;;;;;;;;;5086286;28;20047;-76
2021/12/09 03:41:48;;;;;;;41.97;25.65;;;;;;;;;;5088185;28;20024;-78
2021/12/09 03:44:35;;;;;;;53.42;33.15;;;;;;;;;;5087036;28;20473;-75
2021/12/09 03:47:22;;;;;;;50.03;30.40;;;;;;;;;;5089365;28;20032;-74
2021/12/09 03:50:10;;;;;;;42.60;26.80;;;;;;;;;;5087628;28;20054;-75
2021/12/09 03:52:57;;;;;;;47.55;29.45;;;;;;;;;;5092449;28;20032;-76
2021/12/09 03:55:44;;;;;;;37.33;23.58;;;;;;;;;;5090775;28;20040;-76
2021/12/09 03:58:31;;;;;;;46.20;30.35;;;;;;;;;;5092218;28;20058;-76
2021/12/09 04:01:17;;;;;;;40.70;25.15;;;;;;;;;;5079440;28;20032;-76
2021/12/09 04:04:04;;;;;;;38.00;25.33;;;;;;;;;;5091186;28;20529;-76
2021/12/09 04:06:53;;;;;;;45.53;28.50;;;;;;;;;;5086198;28;20039;-76
2021/12/09 04:09:40;;;;;;;44.38;26.00;;;;;;;;;;5091777;28;20407;-76
2021/12/09 04:12:27;;;;;;;35.72;22.45;;;;;;;;;;5084683;28;20028;-76
2021/12/09 04:15:14;;;;;;;36.85;23.42;;;;;;;;;;5069265;28;20540;-77
2021/12/09 04:18:04;;;;;;;22.48;15.77;;;;;;;;;;5091097;28;20028;-79
2021/12/09 04:20:50;;;;;;;31.33;20.58;;;;;;;;;;5072727;28;20032;-77
2021/12/09 04:23:37;;;;;;;34.15;22.08;;;;;;;;;;5092599;28;20461;-77
2021/12/09 04:26:24;;;;;;;53.85;33.00;;;;;;;;;;5088839;28;20136;-77
2021/12/09 04:29:12;;;;;;;21.63;15.48;;;;;;;;;;5087722;28;20051;-77
2021/12/09 04:31:59;;;;;;;24.25;15.10;;;;;;;;;;5073467;28;20046;-76
2021/12/09 04:34:46;;;;;;;40.63;25.10;;;;;;;;;;5087803;28;20028;-77
2021/12/09 04:37:33;;;;;;;31.88;21.10;;;;;;;;;;5088935;28;20034;-76
2021/12/09 04:40:19;;;;;;;28.65;19.83;;;;;;;;;;5087566;28;20066;-77
2021/12/09 04:43:06;;;;;;;34.63;22.10;;;;;;;;;;5091695;28;20021;-75
2021/12/09 04:45:53;;;;;;;21.92;13.88;;;;;;;;;;5096130;28;20062;-77
2021/12/09 04:48:40;;;;;;;26.48;15.07;;;;;;;;;;5077187;28;20036;-76
2021/12/09 04:51:27;;;;;;;25.30;15.73;;;;;;;;;;5091495;28;20036;-76
2021/12/09 04:54:14;;;;;;;19.05;13.13;;;;;;;;;;5092456;28;20043;-76
2021/12/09 04:57:00;;;;;;;28.85;17.90;;;;;;;;;;5096413;28;20032;-75
2021/12/09 04:59:48;;;;;;;36.08;20.65;;;;;;;;;;5083581;28;20031;-76
2021/12/09 05:05:42;;;;;;;21.38;14.25;;;;;;;;;;5080319;28;20399;-77
2021/12/09 05:08:32;;;;;;;26.85;16.73;;;;;;;;;;5083990;28;20384;-77
2021/12/09 05:14:13;;;;;;;28.92;17.10;;;;;;;;;;5089536;28;20567;-77
2021/12/09 05:17:01;;;;;;;28.25;16.00;;;;;;;;;;5086005;28;20032;-76
2021/12/09 05:19:48;;;;;;;29.00;17.30;;;;;;;;;;5081558;28;20027;-75
2021/12/09 05:22:35;;;;;;;19.48;11.90;;;;;;;;;;5076598;28;20028;-75
2021/12/09 05:25:21;;;;;;;21.05;13.85;;;;;;;;;;5077333;28;20516;-77
2021/12/09 05:28:10;;;;;;;17.23;10.80;;;;;;;;;;5069122;28;20039;-76
2021/12/09 05:34:03;;;;;;;17.80;11.48;;;;;;;;;;5080116;28;20046;-77
2021/12/09 05:36:50;;;;;;;26.35;16.63;;;;;;;;;;5071726;28;20446;-77
2021/12/09 05:39:37;;;;;;;18.20;11.07;;;;;;;;;;5075305;28;20028;-75
2021/12/09 05:42:24;;;;;;;18.83;11.25;;;;;;;;;;5079921;28;20574;-76
2021/12/09 05:45:11;;;;;;;21.73;13.00;;;;;;;;;;5084876;28;20032;-76
2021/12/09 05:47:58;;;;;;;18.05;11.90;;;;;;;;;;5074742;28;20039;-77
2021/12/09 05:50:45;;;;;;;22.40;13.25;;;;;;;;;;5086528;28;20094;-77
2021/12/09 05:53:32;;;;;;;18.38;11.30;;;;;;;;;;5086360;28;20030;-76
2021/12/09 05:56:19;;;;;;;23.45;13.95;;;;;;;;;;5084901;28;20028;-76
2021/12/09 05:59:07;;;;;;;21.20;11.95;;;;;;;;;;5086792;28;20024;-76
2021/12/09 06:01:54;;;;;;;14.32;9.27;;;;;;;;;;5086976;28;20039;-77
2021/12/09 06:04:40;;;;;;;18.02;11.02;;;;;;;;;;5085752;28;20028;-77
2021/12/09 06:07:27;;;;;;;22.17;11.88;;;;;;;;;;5073697;28;20024;-77
2021/12/09 06:10:14;;;;;;;20.30;12.45;;;;;;;;;;5088839;28;20064;-75
2021/12/09 06:13:01;;;;;;;16.38;10.73;;;;;;;;;;5076519;28;20043;-75
2021/12/09 06:15:48;;;;;;;19.35;12.25;;;;;;;;;;5079131;28;20038;-75
2021/12/09 06:18:35;;;;;;;18.27;11.05;;;;;;;;;;5085458;28;20028;-76
2021/12/09 06:21:24;;;;;;;13.70;9.10;;;;;;;;;;5069706;28;20035;-76
2021/12/09 06:24:10;;;;;;;15.18;10.10;;;;;;;;;;5086589;28;20048;-76
2021/12/09 06:26:58;;;;;;;21.45;12.32;;;;;;;;;;5081848;28;20039;-76
2021/12/09 06:29:45;;;;;;;19.67;12.35;;;;;;;;;;5086197;28;20035;-76
2021/12/09 06:32:31;;;;;;;19.33;12.48;;;;;;;;;;5087081;28;20042;-76
2021/12/09 06:35:19;;;;;;;17.75;10.52;;;;;;;;;;5082578;28;20042;-76
2021/12/09 06:38:11;;;;;;;17.42;10.23;;;;;;;;;;5086285;28;20024;-76
2021/12/09 06:40:58;;;;;;;15.98;9.30;;;;;;;;;;5082386;28;20036;-75
2021/12/09 06:43:45;;;;;;;16.52;9.93;;;;;;;;;;5074009;28;20039;-75
2021/12/09 06:46:31;;;;;;;13.40;9.10;;;;;;;;;;5078406;28;20029;-76
2021/12/09 06:49:18;;;;;;;19.83;11.93;;;;;;;;;;5092598;28;20040;-76
2021/12/09 06:52:05;;;;;;;17.17;10.63;;;;;;;;;;5092268;28;20039;-74
2021/12/09 06:54:52;;;;;;;15.95;9.80;;;;;;;;;;5082114;28;20047;-76
2021/12/09 06:57:39;;;;;;;18.08;10.63;;;;;;;;;;5084348;28;20036;-77
2021/12/09 07:00:35;;;;;;;17.52;10.00;;;;;;;;;;5092929;28;20058;-77
2021/12/09 07:03:22;;;;;;;14.65;8.85;;;;;;;;;;5091577;28;20391;-77
2021/12/09 07:06:11;;;;;;;15.50;9.95;;;;;;;;;;5086752;28;20024;-77
2021/12/09 07:09:00;;;;;;;10.80;7.25;;;;;;;;;;5088344;28;20110;-75
2021/12/09 07:11:51;;;;;;;14.50;9.05;;;;;;;;;;5088426;28;20510;-77
2021/12/09 07:14:39;;;;;;;18.15;10.90;;;;;;;;;;5088835;28;20059;-75
2021/12/09 07:17:26;;;;;;;16.92;8.77;;;;;;;;;;5089611;28;20036;-75
2021/12/09 07:20:15;;;;;;;11.75;8.32;;;;;;;;;;5088615;28;20034;-75
2021/12/09 07:23:02;;;;;;;14.38;7.90;;;;;;;;;;5091357;28;20039;-75
2021/12/09 07:25:49;;;;;;;12.27;7.47;;;;;;;;;;5088888;28;20028;-75
2021/12/09 07:28:36;;;;;;;14.65;8.65;;;;;;;;;;5092261;28;20047;-76
2021/12/09 07:31:24;;;;;;;13.73;8.88;;;;;;;;;;5078023;28;20070;-76
2021/12/09 07:34:10;;;;;;;14.15;9.02;;;;;;;;;;5087675;28;20051;-76
2021/12/09 07:37:02;;;;;;;13.30;7.93;;;;;;;;;;5082882;28;20039;-75
2021/12/09 07:39:49;;;;;;;16.88;9.80;;;;;;;;;;5090992;28;20030;-76
2021/12/09 07:42:36;;;;;;;15.23;9.00;;;;;;;;;;5084669;28;20035;-77
2021/12/09 07:45:23;;;;;;;11.35;6.80;;;;;;;;;;5086486;28;20040;-77
2021/12/09 07:48:10;;;;;;;14.52;8.55;;;;;;;;;;5087941;28;20035;-75
2021/12/09 07:50:57;;;;;;;13.73;8.15;;;;;;;;;;5087060;28;20048;-76
2021/12/09 07:53:43;;;;;;;11.02;7.15;;;;;;;;;;5090235;28;20036;-76
2021/12/09 07:56:30;;;;;;;12.32;8.13;;;;;;;;;;5074538;28;20040;-76
2021/12/09 07:59:17;;;;;;;16.40;9.48;;;;;;;;;;5088395;28;20028;-77
2021/12/09 08:02:05;;;;;;;10.95;7.43;;;;;;;;;;5073479;28;20036;-76
2021/12/09 08:04:52;;;;;;;11.82;7.28;;;;;;;;;;5083986;28;20407;-76
2021/12/09 08:07:41;;;;;;;11.73;7.60;;;;;;;;;;5089225;28;20035;-76
2021/12/09 08:10:28;;;;;;;12.90;7.20;;;;;;;;;;5074609;28;20063;-76
2021/12/09 08:13:14;;;;;;;12.45;7.97;;;;;;;;;;5091720;28;20036;-76
2021/12/09 08:16:01;;;;;;;12.88;8.30;;;;;;;;;;5083296;28;20063;-76
2021/12/09 08:18:54;;;;;;;11.82;7.25;;;;;;;;;;5090197;28;20034;-76
2021/12/09 08:21:41;;;;;;;11.07;5.80;;;;;;;;;;5082702;28;20024;-76
2021/12/09 08:24:28;;;;;;;11.93;6.82;;;;;;;;;;5085709;28;20028;-75
2021/12/09 08:27:15;;;;;;;11.80;7.40;;;;;;;;;;5090599;28;20386;-76
2021/12/09 08:30:04;;;;;;;13.65;7.88;;;;;;;;;;5091352;28;20044;-75
2021/12/09 08:32:52;;;;;;;12.88;7.90;;;;;;;;;;5085661;28;20525;-75
2021/12/09 08:35:39;;;;;;;10.95;6.35;;;;;;;;;;5086937;28;20043;-75
2021/12/09 08:38:26;;;;;;;11.25;6.85;;;;;;;;;;5091196;28;20509;-76
2021/12/09 08:41:15;;;;;;;9.90;6.88;;;;;;;;;;5081849;28;20035;-76
2021/12/09 08:44:01;;;;;;;12.38;7.45;;;;;;;;;;5087457;28;20035;-76
2021/12/09 08:46:48;;;;;;;10.57;6.13;;;;;;;;;;5084274;28;20039;-76
2021/12/09 08:49:35;;;;;;;9.85;6.13;;;;;;;;;;5079756;28;20044;-76
2021/12/09 08:52:22;;;;;;;12.07;7.25;;;;;;;;;;5075966;28;20028;-76
2021/12/09 08:55:09;;;;;;;12.52;7.72;;;;;;;;;;5082828;28;20118;-75
2021/12/09 08:57:56;;;;;;;10.68;6.85;;;;;;;;;;5071409;28;20058;-75
2021/12/09 09:00:43;;;;;;;11.82;7.05;;;;;;;;;;5085473;28;20046;-75
2021/12/09 09:03:30;;;;;;;11.90;6.80;;;;;;;;;;5086483;28;20030;-75
2021/12/09 09:06:17;;;;;;;11.20;7.00;;;;;;;;;;5088796;28;20372;-75
2021/12/09 09:09:05;;;;;;;12.60;6.85;;;;;;;;;;5086730;28;20043;-75
2021/12/09 09:11:52;;;;;;;10.68;6.55;;;;;;;;;;5090800;28;20051;-75
2021/12/09 09:14:39;;;;;;;9.98;6.15;;;;;;;;;;5086701;28;20455;-76
2021/12/09 09:17:25;;;;;;;11.30;6.65;;;;;;;;;;5080870;28;20040;-76
2021/12/09 09:20:13;;;;;;;8.98;6.18;;;;;;;;;;5089038;28;20025;-76
2021/12/09 09:23:00;;;;;;;10.82;6.40;;;;;;;;;;5090435;28;20377;-76
2021/12/09 09:25:47;;;;;;;10.38;6.20;;;;;;;;;;5072876;28;20695;-76
2021/12/09 09:28:34;;;;;;;10.48;6.40;;;;;;;;;;5089388;28;20040;-76
2021/12/09 09:31:24;;;;;;;9.65;6.30;;;;;;;;;;5086116;28;20042;-76
2021/12/09 09:34:12;;;;;;;9.38;6.20;;;;;;;;;;5081478;28;20031;-76
2021/12/09 09:36:58;;;;;;;10.20;6.53;;;;;;;;;;5087502;28;20392;-76
2021/12/09 09:39:45;;;;;;;10.40;6.05;;;;;;;;;;5072583;28;20039;-76
2021/12/09 09:45:18;;;;;;;11.35;6.40;;;;;;;;;;5080958;28;20040;-75
2021/12/09 09:48:07;;;;;;;9.95;6.07;;;;;;;;;;5077915;28;20045;-76
2021/12/09 09:50:54;;;;;;;9.88;5.80;;;;;;;;;;5086058;28;20052;-76
2021/12/09 09:53:42;;;;;;;9.15;6.32;;;;;;;;;;5087606;28;20028;-76
2021/12/09 09:56:30;;;;;;;10.15;6.68;;;;;;;;;;5073361;28;20038;-75
2021/12/09 09:59:17;;;;;;;10.70;5.68;;;;;;;;;;5075621;28;20039;-76
2021/12/09 10:02:05;;;;;;;9.82;6.50;;;;;;;;;;5077351;28;20036;-75
2021/12/09 10:05:02;;;;;;;8.55;5.30;;;;;;;;;;5089730;28;20392;-75
2021/12/09 10:07:50;;;;;;;11.13;6.35;;;;;;;;;;5080709;28;20554;-76
2021/12/09 10:10:38;;;;;;;11.45;6.38;;;;;;;;;;5087681;28;20518;-76
2021/12/09 10:13:30;;;;;;;9.43;5.60;;;;;;;;;;5080245;28;20033;-75
2021/12/09 10:16:28;;;;;;;7.80;5.50;;;;;;;;;;5079890;28;20039;-76
2021/12/09 10:19:16;;;;;;;8.57;5.65;;;;;;;;;;5083640;28;20032;-75
2021/12/09 10:22:09;;;;;;;8.45;5.25;;;;;;;;;;5070090;28;20039;-76
2021/12/09 10:24:56;;;;;;;7.90;5.28;;;;;;;;;;5082422;28;20042;-75
2021/12/09 10:27:45;;;;;;;9.20;5.55;;;;;;;;;;5089887;28;20031;-76
2021/12/09 10:30:37;;;;;;;9.50;5.78;;;;;;;;;;5078989;28;20039;-76
2021/12/09 10:33:24;;;;;;;9.23;5.28;;;;;;;;;;5078949;28;20043;-76
2021/12/09 10:36:11;;;;;;;10.32;5.93;;;;;;;;;;5084822;28;20039;-76
2021/12/09 10:39:16;;;;;;;8.35;5.63;;;;;;;;;;5084706;28;20051;-75
2021/12/09 10:42:05;;;;;;;8.73;5.00;;;;;;;;;;5079735;28;20028;-76
2021/12/09 10:44:54;;;;;;;9.20;5.28;;;;;;;;;;5086057;28;20518;-74
2021/12/09 10:56:13;;;;;;;12.40;6.32;;;;;;;;;;5086087;28;20032;-75
2021/12/09 10:59:00;;;;;;;10.57;6.30;;;;;;;;;;5087689;28;20031;-75
2021/12/09 11:02:04;;;;;;;10.23;6.43;;;;;;;;;;5089145;28;20024;-75
2021/12/09 11:05:00;;;;;;;12.93;6.53;;;;;;;;;;5087318;28;20028;-75
2021/12/09 11:07:46;;;;;;;11.27;6.82;;;;;;;;;;5084203;28;20028;-75
2021/12/09 11:10:33;;;;;;;11.48;7.35;;;;;;;;;;5088880;28;20040;-75
2021/12/09 11:13:22;;;;;;;11.27;6.43;;;;;;;;;;5066757;28;20368;-75
2021/12/09 11:16:09;;;;;;;10.77;6.35;;;;;;;;;;5106894;28;20046;-76
2021/12/09 11:19:15;;;;;;;10.90;7.07;;;;;;;;;;5102563;28;20429;-76
2021/12/09 11:22:04;;;;;;;12.38;7.40;;;;;;;;;;5103106;28;20040;-76
2021/12/09 11:24:58;;;;;;;12.93;8.15;;;;;;;;;;5108060;28;20115;-76
2021/12/09 11:28:05;;;;;;;12.00;7.60;;;;;;;;;;5105626;28;20632;-76
2021/12/09 11:31:07;;;;;;;12.35;7.82;;;;;;;;;;5100940;28;20041;-76
2021/12/09 11:34:01;;;;;;;15.15;9.45;;;;;;;;;;5092128;28;20054;-76
2021/12/09 11:36:48;;;;;;;13.57;8.40;;;;;;;;;;5109766;28;20036;-78
2021/12/09 11:39:37;;;;;;;13.18;9.30;;;;;;;;;;5108360;28;20036;-76
2021/12/09 11:42:34;;;;;;;15.32;9.77;;;;;;;;;;5109688;28;20027;-76
2021/12/09 11:45:23;;;;;;;12.85;7.60;;;;;;;;;;5095875;28;20055;-76
2021/12/09 11:48:11;;;;;;;19.83;11.45;;;;;;;;;;5079751;28;20024;-76
2021/12/09 11:50:58;;;;;;;17.58;10.73;;;;;;;;;;5092058;28;20036;-76
2021/12/09 11:53:45;;;;;;;18.63;10.38;;;;;;;;;;5080373;28;20032;-77
2021/12/09 11:56:43;;;;;;;15.23;9.98;;;;;;;;;;5087618;28;20040;-77
2021/12/09 12:11:27;;;;;;;14.50;8.90;;;;;;;;;;5087429;28;20047;-76
2021/12/09 12:14:33;;;;;;;18.15;10.65;;;;;;;;;;5082865;28;20028;-77
2021/12/09 12:17:28;;;;;;;13.70;9.25;;;;;;;;;;5091104;28;20039;-77
2021/12/09 12:20:38;;;;;;;15.75;10.00;;;;;;;;;;5080441;28;20035;-77
2021/12/09 12:24:06;;;;;;;16.05;11.07;;;;;;;;;;5076257;28;20043;-77
2021/12/09 12:27:09;;;;;;;20.75;12.45;;;;;;;;;;5084895;28;20399;-77
2021/12/09 12:30:24;;;;;;;17.52;11.07;;;;;;;;;;5086353;28;20052;-77
2021/12/09 12:33:36;;;;;;;19.05;12.43;;;;;;;;;;5084029;28;20050;-77
2021/12/09 12:37:03;;;;;;;17.20;10.73;;;;;;;;;;5091556;28;20028;-77
2021/12/09 12:40:04;;;;;;;22.52;13.82;;;;;;;;;;5089063;28;20054;-76
2021/12/09 12:43:07;;;;;;;18.65;11.55;;;;;;;;;;5078284;28;20036;-76
2021/12/09 12:46:08;;;;;;;17.92;11.18;;;;;;;;;;5082151;28;20039;-76
2021/12/09 12:49:02;;;;;;;25.45;15.00;;;;;;;;;;5088833;28;20039;-75
2021/12/09 12:51:52;;;;;;;20.85;12.68;;;;;;;;;;5085819;28;20036;-76
2021/12/09 12:54:56;;;;;;;20.80;12.77;;;;;;;;;;5085573;28;20043;-76
2021/12/09 12:57:47;;;;;;;28.92;17.33;;;;;;;;;;5088653;28;20032;-76
2021/12/09 13:00:38;;;;;;;21.15;13.77;;;;;;;;;;5080400;28;20051;-76
2021/12/09 13:03:32;;;;;;;22.05;14.35;;;;;;;;;;5086248;28;20591;-76
2021/12/09 13:06:39;;;;;;;19.98;11.85;;;;;;;;;;5088627;28;20027;-76
2021/12/09 13:12:35;;;;;;;26.20;16.50;;;;;;;;;;5085716;28;20036;-75
2021/12/09 13:15:32;;;;;;;21.27;13.48;;;;;;;;;;5091025;28;20032;-76
2021/12/09 13:21:53;;;;;;;25.23;17.08;;;;;;;;;;5012717;28;20075;-76
2021/12/09 13:24:53;;;;;;;23.30;15.00;;;;;;;;;;5004445;28;20077;-76
2021/12/09 13:27:48;;;;;;;30.27;18.10;;;;;;;;;;5085737;28;20031;-76
2021/12/09 13:31:08;;;;;;;30.13;19.48;;;;;;;;;;5074460;28;20044;-75
2021/12/09 13:34:06;;;;;;;23.08;14.32;;;;;;;;;;5085558;28;20063;-76
2021/12/09 13:37:28;;;;;;;23.48;15.25;;;;;;;;;;5089521;28;20074;-77
2021/12/09 13:45:46;;;;;;;27.17;15.82;;;;;;;;;;5093815;28;20028;-76
2021/12/09 13:55:29;;;;;;;30.40;17.05;;;;;;;;;;5077378;28;20395;-76
2021/12/09 13:58:21;;;;;;;24.92;15.27;;;;;;;;;;5085874;28;20024;-76
2021/12/09 14:01:08;;;;;;;21.73;14.23;;;;;;;;;;5089529;28;20028;-76
2021/12/09 14:03:55;;;;;;;29.02;19.02;;;;;;;;;;5072812;28;20034;-75
2021/12/09 14:06:48;;;;;;;23.63;14.23;;;;;;;;;;5071892;28;20032;-76
2021/12/09 14:09:36;;;;;;;23.02;14.55;;;;;;;;;;5087943;28;20414;-76
2021/12/09 14:12:23;;;;;;;27.20;17.85;;;;;;;;;;5084442;28;20020;-76
2021/12/09 14:15:15;;;;;;;32.35;20.38;;;;;;;;;;5084168;28;20027;-76
2021/12/09 14:18:07;;;;;;;26.80;15.85;;;;;;;;;;5077077;28;20016;-75
2021/12/09 14:20:54;;;;;;;34.92;22.73;;;;;;;;;;5079021;28;20046;-77
2021/12/09 14:23:41;;;;;;;24.73;15.90;;;;;;;;;;5084569;28;20035;-78
2021/12/09 14:26:27;;;;;;;18.60;14.43;;;;;;;;;;5081692;28;20033;-77
2021/12/09 14:29:14;;;;;;;20.73;14.63;;;;;;;;;;5086361;28;20034;-77
2021/12/09 14:32:03;;;;;;;25.05;15.52;;;;;;;;;;5075473;28;20475;-77
2021/12/09 14:34:51;;;;;;;42.80;26.60;;;;;;;;;;5077173;28;20707;-77
2021/12/09 14:37:38;;;;;;;33.85;20.52;;;;;;;;;;5073977;28;20028;-77
2021/12/09 14:40:28;;;;;;;30.42;19.25;;;;;;;;;;5076919;28;20028;-75
2021/12/09 14:43:16;;;;;;;33.72;21.48;;;;;;;;;;5087227;28;20069;-75
2021/12/09 14:46:07;;;;;;;30.20;19.10;;;;;;;;;;5090085;28;20067;-76
2021/12/09 14:48:55;;;;;;;28.25;18.80;;;;;;;;;;5088291;28;20522;-77
2021/12/09 14:51:43;;;;;;;33.80;19.95;;;;;;;;;;5071935;28;20043;-75
2021/12/09 14:54:30;;;;;;;40.80;24.13;;;;;;;;;;5070409;28;20028;-76
2021/12/09 14:57:16;;;;;;;35.72;21.80;;;;;;;;;;5068929;28;20040;-75
2021/12/09 15:00:03;;;;;;;36.40;21.65;;;;;;;;;;5084978;28;20044;-76
2021/12/09 15:02:52;;;;;;;30.95;20.38;;;;;;;;;;5072161;28;20099;-76
2021/12/09 15:05:50;;;;;;;33.58;19.38;;;;;;;;;;5090858;28;20023;-77
2021/12/09 15:08:48;;;;;;;37.58;24.40;;;;;;;;;;5083865;28;20391;-77
2021/12/09 15:11:36;;;;;;;25.58;16.13;;;;;;;;;;5092049;28;20040;-77
2021/12/09 15:14:25;;;;;;;32.28;20.38;;;;;;;;;;5076728;28;20020;-77
2021/12/09 15:17:20;;;;;;;34.95;20.80;;;;;;;;;;5090558;28;20024;-77
2021/12/09 15:20:09;;;;;;;28.25;18.20;;;;;;;;;;5090107;28;20031;-76
2021/12/09 15:23:12;;;;;;;36.90;22.98;;;;;;;;;;5089816;28;20032;-77
2021/12/09 15:25:59;;;;;;;31.45;19.35;;;;;;;;;;5076613;28;20043;-76
2021/12/09 15:28:46;;;;;;;30.38;18.08;;;;;;;;;;5088098;28;20032;-76
2021/12/09 15:31:34;;;;;;;24.45;15.90;;;;;;;;;;5081563;28;20042;-77
2021/12/09 15:34:23;;;;;;;35.10;22.13;;;;;;;;;;5090844;28;20035;-76
2021/12/09 15:37:12;;;;;;;38.65;24.25;;;;;;;;;;5087889;28;20043;-77
2021/12/09 15:40:01;;;;;;;41.92;24.55;;;;;;;;;;5091009;28;20757;-76
2021/12/09 15:42:48;;;;;;;38.65;22.60;;;;;;;;;;5090660;28;20020;-76
2021/12/09 15:45:35;;;;;;;33.67;21.80;;;;;;;;;;5067229;28;20032;-75
2021/12/09 15:48:23;;;;;;;20.77;14.80;;;;;;;;;;5089385;28;20042;-76
2021/12/09 15:51:18;;;;;;;32.03;19.98;;;;;;;;;;5084028;28;20570;-75
2021/12/09 15:54:05;;;;;;;34.38;21.08;;;;;;;;;;5087462;28;20028;-75
2021/12/09 15:56:55;;;;;;;26.98;16.85;;;;;;;;;;5088275;28;20537;-76
2021/12/09 15:59:42;;;;;;;39.30;19.23;;;;;;;;;;5086149;28;20032;-75
2021/12/09 16:02:30;;;;;;;29.55;18.27;;;;;;;;;;5076401;28;20038;-75
2021/12/09 16:05:18;;;;;;;30.65;17.52;;;;;;;;;;5082388;28;20028;-82
2021/12/09 16:08:05;;;;;;;27.27;17.25;;;;;;;;;;5087979;28;20047;-82
2021/12/09 16:10:52;;;;;;;28.55;17.75;;;;;;;;;;5074616;28;20048;-82
2021/12/09 16:13:40;;;;;;;34.95;22.42;;;;;;;;;;5085625;28;20391;-82
2021/12/09 16:16:28;;;;;;;37.55;23.48;;;;;;;;;;5086161;28;20032;-83
2021/12/09 16:19:16;;;;;;;33.25;21.52;;;;;;;;;;5086527;28;20066;-82
2021/12/09 16:25:12;;;;;;;41.17;24.17;;;;;;;;;;5084446;28;20492;-82
2021/12/09 16:27:59;;;;;;;53.50;33.15;;;;;;;;;;5087089;28;20075;-81
2021/12/09 16:30:46;;;;;;;34.33;22.23;;;;;;;;;;5085786;28;20395;-81
2021/12/09 16:33:34;;;;;;;63.53;36.30;;;;;;;;;;5069800;28;20040;-81
2021/12/09 16:36:21;;;;;;;46.63;31.08;;;;;;;;;;5084976;28;20484;-82
2021/12/09 16:39:08;;;;;;;48.22;29.23;;;;;;;;;;5085716;28;20516;-81
2021/12/09 16:41:55;;;;;;;53.13;32.55;;;;;;;;;;5069714;28;20037;-80
2021/12/09 16:44:42;;;;;;;51.70;32.63;;;;;;;;;;5084810;28;20016;-82
2021/12/09 16:47:28;;;;;;;57.08;34.58;;;;;;;;;;5088329;28;20032;-81
2021/12/09 16:50:17;;;;;;;48.88;28.00;;;;;;;;;;5088443;28;20050;-80
2021/12/09 16:53:10;;;;;;;60.17;35.17;;;;;;;;;;5084250;28;20031;-82
2021/12/09 16:56:05;;;;;;;46.78;28.88;;;;;;;;;;5086539;28;20032;-82
2021/12/09 16:58:59;;;;;;;54.25;34.45;;;;;;;;;;5088731;28;20036;-83
2021/12/09 17:01:46;;;;;;;42.00;26.02;;;;;;;;;;5083661;28;20399;-84
2021/12/09 17:04:33;;;;;;;45.65;28.13;;;;;;;;;;5085238;28;20032;-83
2021/12/09 17:07:21;;;;;;;47.22;30.85;;;;;;;;;;5079841;28;20029;-81
2021/12/09 17:10:09;;;;;;;63.05;35.30;;;;;;;;;;5083633;28;20036;-79
2021/12/09 17:12:55;;;;;;;68.90;40.28;;;;;;;;;;5086062;28;20043;-78
2021/12/09 17:15:42;;;;;;;49.95;31.38;;;;;;;;;;5083316;28;20039;-79
2021/12/09 17:18:29;;;;;;;37.20;21.92;;;;;;;;;;5081479;28;20539;-80
2021/12/09 17:21:16;;;;;;;42.47;28.10;;;;;;;;;;5082420;28;20043;-79
2021/12/09 17:24:06;;;;;;;45.97;29.02;;;;;;;;;;5079518;28;21218;-79